createdAt,value
2023-05-19T00:02:36.113Z,100.00
2023-05-19T00:05:46.308Z,100.00
2023-05-19T00:08:50.010Z,100.00
2023-05-19T00:11:53.178Z,100.00
2023-05-19T00:14:56.229Z,100.00
2023-05-19T00:17:59.448Z,100.00
2023-05-19T00:21:02.149Z,100.00
2023-05-19T00:24:06.329Z,100.00
2023-05-19T00:27:08.994Z,100.00
2023-05-19T00:30:12.331Z,100.00
2023-05-19T00:33:15.290Z,100.00
2023-05-19T00:36:18.195Z,100.00
2023-05-19T00:39:20.948Z,100.00
2023-05-19T00:42:23.926Z,100.00
2023-05-19T00:45:26.644Z,100.00
2023-05-19T00:48:29.703Z,100.00
2023-05-19T00:51:32.685Z,100.00
2023-05-19T00:54:36.340Z,100.00
2023-05-19T00:57:39.110Z,100.00
2023-05-19T01:00:43.466Z,100.00
2023-05-19T01:03:47.274Z,100.00
2023-05-19T01:06:54.918Z,100.00
2023-05-19T01:09:58.064Z,100.00
2023-05-19T01:13:02.781Z,100.00
2023-05-19T01:16:30.384Z,100.00
2023-05-19T01:19:50.871Z,100.00
2023-05-19T01:23:16.757Z,100.00
2023-05-19T01:26:26.096Z,100.00
2023-05-19T01:29:41.769Z,100.00
2023-05-19T01:32:45.643Z,100.00
2023-05-19T01:35:50.245Z,100.00
2023-05-19T01:38:56.337Z,100.00
2023-05-19T01:42:01.630Z,100.00
2023-05-19T01:45:11.354Z,100.00
2023-05-19T01:48:14.654Z,100.00
2023-05-19T01:51:17.652Z,100.00
2023-05-19T01:54:20.342Z,100.00
2023-05-19T01:57:38.672Z,100.00
2023-05-19T02:01:08.906Z,100.00
2023-05-19T02:04:31.358Z,100.00
2023-05-19T02:08:12.612Z,100.00
2023-05-19T02:11:26.395Z,100.00
2023-05-19T02:14:51.943Z,100.00
2023-05-19T02:17:58.100Z,100.00
2023-05-19T02:21:01.548Z,100.00
2023-05-19T02:24:04.775Z,100.00
2023-05-19T02:27:07.545Z,100.00
2023-05-19T02:30:11.024Z,100.00
2023-05-19T02:33:13.647Z,100.00
2023-05-19T02:36:19.244Z,100.00
2023-05-19T02:39:21.928Z,100.00
2023-05-19T02:42:24.869Z,100.00
2023-05-19T02:45:28.880Z,100.00
2023-05-19T02:48:33.173Z,100.00
2023-05-19T02:51:35.937Z,100.00
2023-05-19T02:54:38.986Z,100.00
2023-05-19T02:57:42.383Z,100.00
2023-05-19T03:00:45.486Z,100.00
2023-05-19T03:03:48.329Z,100.00
2023-05-19T03:06:51.453Z,100.00
2023-05-19T03:09:54.296Z,100.00
2023-05-19T03:12:57.220Z,100.00
2023-05-19T03:15:59.950Z,100.00
2023-05-19T03:19:02.988Z,100.00
2023-05-19T03:22:05.789Z,100.00
2023-05-19T03:25:09.975Z,100.00
2023-05-19T03:28:12.758Z,100.00
2023-05-19T03:31:16.544Z,100.00
2023-05-19T03:34:19.296Z,100.00
2023-05-19T03:37:22.670Z,100.00
2023-05-19T03:40:25.474Z,100.00
2023-05-19T03:43:29.430Z,100.00
2023-05-19T03:46:32.444Z,100.00
2023-05-19T03:49:35.904Z,100.00
2023-05-19T03:52:40.392Z,100.00
2023-05-19T03:55:44.883Z,100.00
2023-05-19T03:58:49.818Z,100.00
2023-05-19T04:01:52.950Z,100.00
2023-05-19T04:04:56.218Z,100.00
2023-05-19T04:07:58.941Z,100.00
2023-05-19T04:11:02.238Z,100.00
2023-05-19T04:14:05.418Z,100.00
2023-05-19T04:17:08.724Z,100.00
2023-05-19T04:20:12.133Z,100.00
2023-05-19T04:23:15.290Z,100.00
2023-05-19T04:26:19.544Z,100.00
2023-05-19T04:29:23.486Z,100.00
2023-05-19T04:32:26.273Z,100.00
2023-05-19T04:35:29.553Z,100.00
2023-05-19T04:38:33.818Z,100.00
2023-05-19T04:41:40.436Z,100.00
2023-05-19T04:44:43.705Z,100.00
2023-05-19T04:47:49.703Z,100.00
2023-05-19T04:50:53.266Z,100.00
2023-05-19T04:53:56.461Z,100.00
2023-05-19T04:56:59.244Z,100.00
2023-05-19T05:00:05.141Z,100.00
2023-05-19T05:03:09.104Z,100.00
2023-05-19T05:06:12.261Z,100.00
2023-05-19T05:09:15.679Z,100.00
2023-05-19T05:12:19.543Z,100.00
2023-05-19T05:15:24.397Z,100.00
2023-05-19T05:18:27.894Z,100.00
2023-05-19T05:21:32.045Z,100.00
2023-05-19T05:24:35.929Z,100.00
2023-05-19T05:27:39.406Z,100.00
2023-05-19T05:30:43.742Z,100.00
2023-05-19T05:33:47.079Z,100.00
2023-05-19T05:36:51.161Z,100.00
2023-05-19T05:39:54.019Z,100.00
2023-05-19T05:42:59.069Z,100.00
2023-05-19T05:46:02.162Z,100.00
2023-05-19T05:49:05.786Z,100.00
2023-05-19T05:52:11.359Z,100.00
2023-05-19T05:55:15.877Z,100.00
2023-05-19T05:58:18.683Z,100.00
2023-05-19T06:01:22.004Z,100.00
2023-05-19T06:04:25.990Z,100.00
2023-05-19T06:07:30.069Z,100.00
2023-05-19T06:10:33.383Z,100.00
2023-05-19T06:13:37.414Z,100.00
2023-05-19T06:16:41.169Z,100.00
2023-05-19T06:19:43.909Z,100.00
2023-05-19T06:22:46.857Z,100.00
2023-05-19T06:25:49.943Z,100.00
2023-05-19T06:28:53.138Z,100.00
2023-05-19T06:31:56.514Z,100.00
2023-05-19T06:35:00.968Z,100.00
2023-05-19T06:38:03.700Z,100.00
2023-05-19T06:41:06.918Z,100.00
2023-05-19T06:44:10.166Z,100.00
2023-05-19T06:47:13.264Z,100.00
2023-05-19T06:50:16.433Z,100.00
2023-05-19T06:53:21.316Z,100.00
2023-05-19T06:56:25.172Z,100.00
2023-05-19T06:59:28.242Z,100.00
2023-05-19T07:02:31.742Z,100.00
2023-05-19T07:05:35.083Z,100.00
2023-05-19T07:08:37.938Z,100.00
2023-05-19T07:11:40.996Z,100.00
2023-05-19T07:14:44.351Z,100.00
2023-05-19T07:17:48.208Z,100.00
2023-05-19T07:20:52.917Z,100.00
2023-05-19T07:23:56.253Z,100.00
2023-05-19T07:26:59.027Z,100.00
2023-05-19T07:30:02.035Z,100.00
2023-05-19T07:33:04.875Z,100.00
2023-05-19T07:36:08.014Z,100.00
2023-05-19T07:39:10.833Z,97.96
2023-05-19T07:42:13.813Z,90.47
2023-05-19T07:45:16.486Z,90.85
2023-05-19T07:48:22.477Z,97.55
2023-05-19T07:51:25.316Z,99.06
2023-05-19T07:54:28.283Z,100.00
2023-05-19T07:57:32.467Z,97.95
2023-05-19T08:00:35.753Z,100.00
2023-05-19T08:03:39.070Z,95.48
2023-05-19T08:06:42.929Z,86.15
2023-05-19T08:09:45.884Z,81.93
2023-05-19T08:12:48.482Z,70.13
2023-05-19T08:15:51.658Z,76.44
2023-05-19T08:18:55.155Z,79.18
2023-05-19T08:22:01.166Z,75.03
2023-05-19T08:25:04.884Z,75.52
2023-05-19T08:28:07.877Z,82.59
2023-05-19T08:31:10.956Z,78.04
2023-05-19T08:34:14.008Z,77.54
2023-05-19T08:37:16.657Z,80.71
2023-05-19T08:40:21.046Z,80.55
2023-05-19T08:43:23.723Z,80.88
2023-05-19T08:46:27.101Z,82.35
2023-05-19T08:49:33.546Z,85.82
2023-05-19T08:53:01.638Z,91.95
2023-05-19T08:56:24.459Z,83.15
2023-05-19T08:59:27.577Z,82.32
2023-05-19T09:02:30.991Z,85.22
2023-05-19T09:05:34.581Z,83.90
2023-05-19T09:08:37.492Z,82.25
2023-05-19T09:11:40.539Z,83.57
2023-05-19T09:14:44.052Z,85.26
2023-05-19T09:17:50.231Z,83.03
2023-05-19T09:21:00.498Z,82.49
2023-05-19T09:24:07.984Z,84.55
2023-05-19T09:27:15.800Z,85.33
2023-05-19T09:30:19.602Z,85.99
2023-05-19T09:33:22.486Z,88.57
2023-05-19T09:36:25.819Z,85.19
2023-05-19T09:39:29.021Z,85.40
2023-05-19T09:42:37.671Z,85.07
2023-05-19T09:45:40.496Z,88.21
2023-05-19T09:48:43.912Z,92.99
2023-05-19T09:51:46.647Z,96.71
2023-05-19T09:54:51.882Z,93.64
2023-05-19T09:57:59.935Z,89.36
2023-05-19T10:01:04.543Z,89.07
2023-05-19T10:07:11.359Z,86.04
2023-05-19T10:10:15.844Z,85.23
2023-05-19T10:13:19.578Z,87.03
2023-05-19T10:16:26.784Z,86.53
2023-05-19T10:19:30.053Z,87.63
2023-05-19T10:22:33.927Z,87.78
2023-05-19T10:25:37.923Z,84.57
2023-05-19T10:28:44.823Z,88.31
2023-05-19T10:31:50.636Z,87.67
2023-05-19T10:35:24.398Z,87.62
2023-05-19T10:38:37.345Z,89.47
2023-05-19T10:41:44.465Z,85.28
2023-05-19T10:44:58.563Z,86.34
2023-05-19T10:48:01.696Z,87.29
2023-05-19T10:51:05.303Z,86.24
2023-05-19T10:54:14.496Z,87.81
2023-05-19T10:57:18.226Z,86.98
2023-05-19T11:00:28.311Z,83.94
2023-05-19T11:03:58.259Z,85.08
2023-05-19T11:07:03.683Z,87.50
2023-05-19T11:10:10.202Z,83.34
2023-05-19T11:13:22.725Z,83.68
2023-05-19T11:16:30.173Z,84.54
2023-05-19T11:19:36.026Z,81.87
2023-05-19T11:22:40.114Z,83.04
2023-05-19T11:25:45.867Z,84.94
2023-05-19T11:28:48.702Z,82.14
2023-05-19T11:31:52.292Z,81.95
2023-05-19T11:34:56.168Z,83.55
2023-05-19T11:37:59.842Z,88.10
2023-05-19T11:41:04.439Z,84.81
2023-05-19T11:44:11.852Z,84.02
2023-05-19T11:47:15.214Z,87.53
2023-05-19T11:50:18.715Z,86.52
